Time;durP1;ratioP1;P1;durP2;ratioP2;P2;SDS_P1;SDS_P2;PMS_P1;PMS_P2;Temp;Humidity;BMP_temperature;BMP_pressure;BME280_temperature;BME280_humidity;BME280_pressure;Samples;Min_cycle;Max_cycle;Signal;HPM_P1;HPM_P2
2023/06/29 00:01:54;;;;;;;3.33;3.03;;;16.60;76.10;;;;;;5088597;28;20651;-75
2023/06/29 00:04:26;;;;;;;3.30;2.73;;;16.60;76.90;;;;;;5086349;28;20624;-75
2023/06/29 00:06:54;;;;;;;4.20;2.87;;;16.50;77.20;;;;;;5091887;28;21213;-75
2023/06/29 00:09:22;;;;;;;4.10;3.70;;;16.50;77.70;;;;;;5092979;28;20633;-75
2023/06/29 00:11:49;;;;;;;3.10;2.80;;;16.40;78.00;;;;;;5092118;28;20653;-75
2023/06/29 00:14:16;;;;;;;5.83;3.20;;;16.50;78.30;;;;;;5081256;28;20677;-75
2023/06/29 00:16:43;;;;;;;3.13;2.80;;;16.50;78.50;;;;;;5093074;28;20640;-74
2023/06/29 00:19:11;;;;;;;4.57;3.47;;;16.40;78.40;;;;;;5090289;28;20648;-75
2023/06/29 00:21:39;;;;;;;3.70;3.50;;;16.40;78.70;;;;;;5088995;28;20656;-75
2023/06/29 00:24:11;;;;;;;4.23;3.73;;;16.30;78.70;;;;;;5089878;28;20631;-75
2023/06/29 00:26:38;;;;;;;4.43;3.00;;;16.30;79.20;;;;;;5089811;28;20756;-75
2023/06/29 00:29:04;;;;;;;3.70;3.40;;;16.30;79.10;;;;;;5088241;28;20628;-75
2023/06/29 00:31:31;;;;;;;3.60;3.10;;;16.20;79.60;;;;;;5092018;28;20648;-75
2023/06/29 00:33:58;;;;;;;3.00;2.70;;;16.10;79.20;;;;;;5092083;28;20625;-74
2023/06/29 00:36:26;;;;;;;3.80;3.37;;;16.20;78.30;;;;;;5098662;28;20724;-74
2023/06/29 00:38:54;;;;;;;2.97;2.77;;;16.20;78.40;;;;;;5099583;28;20628;-75
2023/06/29 00:41:21;;;;;;;3.03;2.37;;;16.20;78.30;;;;;;5088961;28;20690;-75
2023/06/29 00:43:48;;;;;;;2.87;2.67;;;16.20;78.50;;;;;;5088966;28;20628;-75
2023/06/29 00:46:20;;;;;;;3.17;2.90;;;16.00;80.40;;;;;;5089447;28;20687;-76
2023/06/29 00:48:48;;;;;;;3.40;3.10;;;16.00;80.90;;;;;;5091054;28;20664;-76
2023/06/29 00:51:16;;;;;;;3.20;2.90;;;16.00;80.70;;;;;;5088966;28;21304;-76
2023/06/29 00:53:44;;;;;;;4.80;3.30;;;16.00;80.40;;;;;;5094709;28;20731;-76
2023/06/29 00:56:12;;;;;;;3.23;2.93;;;16.00;81.10;;;;;;5096216;28;20978;-76
2023/06/29 00:58:39;;;;;;;2.80;2.60;;;16.00;81.40;;;;;;5094593;28;20737;-76
2023/06/29 01:01:06;;;;;;;2.97;2.77;;;15.90;81.20;;;;;;5087647;28;20826;-76
2023/06/29 01:03:33;;;;;;;4.73;3.50;;;15.90;81.90;;;;;;5091366;28;20625;-76
2023/06/29 01:06:05;;;;;;;3.07;2.77;;;15.90;80.90;;;;;;5087231;28;20981;-76
2023/06/29 01:08:39;;;;;;;3.70;2.87;;;16.00;80.60;;;;;;5095995;28;20653;-76
2023/06/29 01:11:07;;;;;;;5.37;3.80;;;16.00;80.40;;;;;;5080223;28;20640;-76
2023/06/29 01:13:37;;;;;;;2.87;2.67;;;15.90;81.40;;;;;;5088429;28;20648;-76
2023/06/29 01:16:07;;;;;;;3.60;3.20;;;15.90;81.80;;;;;;5089166;28;20713;-76
2023/06/29 01:18:35;;;;;;;2.93;2.73;;;15.90;82.60;;;;;;5089273;28;21107;-76
2023/06/29 01:21:04;;;;;;;4.20;3.80;;;15.90;83.00;;;;;;5091930;28;21228;-76
2023/06/29 01:23:36;;;;;;;3.50;3.20;;;15.90;83.40;;;;;;5089094;28;20624;-76
2023/06/29 01:26:06;;;;;;;3.33;3.13;;;15.80;83.50;;;;;;5088913;28;20652;-76
2023/06/29 01:28:38;;;;;;;3.60;3.33;;;15.90;83.40;;;;;;5094644;28;20656;-76
2023/06/29 01:31:05;;;;;;;2.40;2.20;;;15.80;83.00;;;;;;5090939;28;20644;-76
2023/06/29 01:33:34;;;;;;;2.80;2.60;;;15.80;83.30;;;;;;5099003;28;21204;-76
2023/06/29 01:36:07;;;;;;;2.93;2.73;;;15.70;84.00;;;;;;5092796;28;20680;-76
2023/06/29 01:38:39;;;;;;;3.47;3.17;;;15.60;83.70;;;;;;5085668;28;20647;-76
2023/06/29 01:41:12;;;;;;;3.70;3.40;;;15.60;83.70;;;;;;5091831;28;20653;-76
2023/06/29 01:43:40;;;;;;;4.17;3.13;;;15.60;83.10;;;;;;5080266;28;20633;-76
2023/06/29 01:46:10;;;;;;;4.13;3.73;;;15.60;83.80;;;;;;5088059;28;20655;-76
2023/06/29 01:48:39;;;;;;;3.37;3.07;;;15.60;83.20;;;;;;5082459;28;20660;-76
2023/06/29 01:51:07;;;;;;;3.63;3.33;;;15.60;83.30;;;;;;5091536;28;20786;-76
2023/06/29 01:53:35;;;;;;;3.23;3.03;;;15.50;84.50;;;;;;5095644;28;20766;-76
2023/06/29 01:56:04;;;;;;;3.90;3.53;;;15.40;84.40;;;;;;5088446;28;20643;-75
2023/06/29 01:58:33;;;;;;;3.30;3.10;;;15.40;85.30;;;;;;5093170;28;20631;-76
2023/06/29 02:01:01;;;;;;;3.77;3.50;;;15.40;85.70;;;;;;5094617;28;21153;-76
2023/06/29 02:03:29;;;;;;;3.73;3.40;;;15.40;85.50;;;;;;5098184;28;21219;-76
2023/06/29 02:05:56;;;;;;;4.20;3.80;;;15.40;85.60;;;;;;5088116;28;21091;-76
2023/06/29 02:08:23;;;;;;;6.93;3.93;;;15.40;86.00;;;;;;5087634;28;20641;-76
2023/06/29 02:10:49;;;;;;;24.30;4.30;;;15.30;86.30;;;;;;5089748;28;20644;-76
2023/06/29 02:13:16;;;;;;;3.77;3.43;;;15.40;85.00;;;;;;5089720;28;20664;-76
2023/06/29 02:15:45;;;;;;;4.80;3.00;;;15.50;84.20;;;;;;5091837;28;20644;-76
2023/06/29 02:18:12;;;;;;;4.17;3.40;;;15.40;84.80;;;;;;5086117;28;20666;-75
2023/06/29 02:20:39;;;;;;;3.77;3.47;;;15.50;84.50;;;;;;5087133;28;20709;-76
2023/06/29 02:23:07;;;;;;;3.13;2.83;;;15.50;85.70;;;;;;5089158;28;20648;-76
2023/06/29 02:25:35;;;;;;;3.10;2.80;;;15.40;86.50;;;;;;5098937;28;20655;-76
2023/06/29 02:28:02;;;;;;;3.07;2.77;;;15.40;86.90;;;;;;5090428;28;20759;-76
2023/06/29 02:30:30;;;;;;;4.63;3.10;;;15.30;87.10;;;;;;5086808;28;20651;-76
2023/06/29 02:32:58;;;;;;;3.10;2.73;;;15.30;87.50;;;;;;5096952;28;20651;-76
2023/06/29 02:35:26;;;;;;;3.30;3.00;;;15.30;87.60;;;;;;5089553;28;20737;-76
2023/06/29 02:37:54;;;;;;;6.70;2.57;;;15.30;87.40;;;;;;5090263;28;20627;-76
2023/06/29 02:40:22;;;;;;;4.77;3.10;;;15.30;86.80;;;;;;5092117;28;20660;-75
2023/06/29 02:42:49;;;;;;;3.33;3.13;;;15.30;85.90;;;;;;5091745;28;20632;-75
2023/06/29 02:45:17;;;;;;;3.33;3.00;;;15.30;86.90;;;;;;5100150;28;20980;-75
2023/06/29 02:47:45;;;;;;;4.27;3.77;;;15.20;87.00;;;;;;5086085;28;21081;-75
2023/06/29 02:50:13;;;;;;;2.60;2.40;;;15.20;87.60;;;;;;5092998;28;21216;-75
2023/06/29 02:52:41;;;;;;;3.70;3.13;;;15.10;88.00;;;;;;5093469;28;20693;-76
2023/06/29 02:55:09;;;;;;;3.90;3.43;;;15.10;88.30;;;;;;5082476;28;21099;-75
2023/06/29 02:57:37;;;;;;;4.80;3.40;;;15.10;88.60;;;;;;5100780;28;20640;-75
2023/06/29 03:00:08;;;;;;;4.50;3.83;;;15.00;88.80;;;;;;5091975;28;20696;-75
2023/06/29 03:02:35;;;;;;;3.23;3.03;;;15.10;88.00;;;;;;5098323;28;20623;-75
2023/06/29 03:05:04;;;;;;;3.83;3.53;;;15.00;87.80;;;;;;5087586;28;20782;-75
2023/06/29 03:07:34;;;;;;;4.47;3.30;;;15.00;89.10;;;;;;5091695;28;20629;-75
2023/06/29 03:10:02;;;;;;;5.57;3.30;;;15.00;88.70;;;;;;5092781;28;20719;-75
2023/06/29 03:12:29;;;;;;;4.10;3.70;;;14.90;89.40;;;;;;5103519;28;20732;-75
2023/06/29 03:14:59;;;;;;;3.00;2.80;;;15.00;88.90;;;;;;5090848;28;20632;-75
2023/06/29 03:17:27;;;;;;;3.47;3.17;;;15.00;87.40;;;;;;5084264;28;20651;-75
2023/06/29 03:19:54;;;;;;;3.50;3.20;;;14.90;86.80;;;;;;5089878;28;20682;-75
2023/06/29 03:22:20;;;;;;;3.37;3.10;;;14.90;86.60;;;;;;5091325;28;21065;-75
2023/06/29 03:24:49;;;;;;;3.50;2.77;;;14.80;87.60;;;;;;5091754;28;20747;-75
2023/06/29 03:27:15;;;;;;;3.97;3.67;;;14.80;87.80;;;;;;5089935;28;20830;-75
2023/06/29 03:29:42;;;;;;;5.60;3.30;;;14.80;88.70;;;;;;5090006;28;20687;-75
2023/06/29 03:32:09;;;;;;;3.30;2.50;;;14.80;89.60;;;;;;5091130;28;20654;-75
2023/06/29 03:34:36;;;;;;;2.90;2.70;;;14.80;90.10;;;;;;5090392;28;20676;-75
2023/06/29 03:37:03;;;;;;;3.23;2.93;;;14.80;90.30;;;;;;5091973;28;21080;-75
2023/06/29 03:39:30;;;;;;;4.90;2.93;;;14.80;90.50;;;;;;5090793;28;20682;-75
2023/06/29 03:41:58;;;;;;;3.93;3.40;;;14.70;90.50;;;;;;5097802;28;20743;-75
2023/06/29 03:44:25;;;;;;;3.90;3.50;;;14.80;90.70;;;;;;5099309;28;20631;-76
2023/06/29 03:46:53;;;;;;;3.60;3.30;;;14.80;90.70;;;;;;5091150;28;20640;-75
2023/06/29 03:49:19;;;;;;;3.53;3.23;;;14.80;90.20;;;;;;5086397;28;20652;-75
2023/06/29 03:51:46;;;;;;;3.90;3.20;;;14.90;89.60;;;;;;5089821;28;20655;-75
2023/06/29 03:54:13;;;;;;;4.03;3.17;;;14.90;89.20;;;;;;5093527;28;20617;-75
2023/06/29 03:56:40;;;;;;;3.27;2.97;;;15.00;89.90;;;;;;5097085;28;20652;-75
2023/06/29 03:59:08;;;;;;;3.63;3.00;;;14.90;90.30;;;;;;5094407;28;20635;-75
2023/06/29 04:01:35;;;;;;;4.47;3.00;;;15.00;89.60;;;;;;5090055;28;20644;-75
2023/06/29 04:04:01;;;;;;;2.90;2.70;;;15.10;90.00;;;;;;5093847;28;20621;-75
2023/06/29 04:06:28;;;;;;;5.07;3.73;;;15.10;89.10;;;;;;5090029;28;20680;-75
2023/06/29 04:08:55;;;;;;;3.93;3.30;;;15.20;89.30;;;;;;5097301;28;20996;-75
2023/06/29 04:11:22;;;;;;;4.60;2.97;;;15.20;90.30;;;;;;5090959;28;21232;-75
2023/06/29 04:13:48;;;;;;;3.87;3.53;;;15.20;90.60;;;;;;5089922;28;21101;-75
2023/06/29 04:16:16;;;;;;;3.83;3.37;;;15.20;90.30;;;;;;5090624;28;21254;-75
2023/06/29 04:18:43;;;;;;;3.20;3.00;;;15.30;90.10;;;;;;5089461;28;20727;-76
2023/06/29 04:21:10;;;;;;;2.90;2.70;;;15.30;90.00;;;;;;5089794;28;20650;-75
2023/06/29 04:23:37;;;;;;;4.67;3.13;;;15.40;90.00;;;;;;5089760;28;21206;-75
2023/06/29 04:26:04;;;;;;;3.53;3.20;;;15.40;89.80;;;;;;5097819;28;20651;-75
2023/06/29 04:28:35;;;;;;;3.77;3.40;;;15.50;90.40;;;;;;5088848;28;20977;-76
2023/06/29 04:31:02;;;;;;;4.33;3.10;;;15.50;90.40;;;;;;5092368;28;20697;-75
2023/06/29 04:33:30;;;;;;;2.90;2.70;;;15.60;90.70;;;;;;5083864;28;20629;-75
2023/06/29 04:35:57;;;;;;;3.73;3.43;;;15.60;90.50;;;;;;5089546;28;20641;-77
2023/06/29 04:38:26;;;;;;;2.93;2.50;;;15.70;90.60;;;;;;5100014;28;20671;-77
2023/06/29 04:40:59;;;;;;;3.93;3.63;;;15.70;90.50;;;;;;5088802;28;20644;-78
2023/06/29 04:43:26;;;;;;;4.30;3.40;;;15.80;90.00;;;;;;5089239;28;20641;-77
2023/06/29 04:45:53;;;;;;;3.57;2.70;;;16.00;88.80;;;;;;5095154;28;20753;-75
2023/06/29 04:48:28;;;;;;;3.17;2.80;;;16.20;86.90;;;;;;5096693;28;20642;-79
2023/06/29 04:51:02;;;;;;;3.17;2.97;;;16.30;85.10;;;;;;5081414;28;20717;-79
2023/06/29 04:53:29;;;;;;;4.70;2.97;;;16.40;86.40;;;;;;5089654;28;20625;-75
2023/06/29 04:55:56;;;;;;;3.27;2.97;;;16.40;85.70;;;;;;5089346;28;20653;-74
2023/06/29 04:58:23;;;;;;;3.60;3.30;;;16.30;87.30;;;;;;5105230;28;20624;-73
2023/06/29 05:00:51;;;;;;;3.00;2.80;;;16.40;87.20;;;;;;5084433;28;20736;-73
2023/06/29 05:03:18;;;;;;;4.17;3.70;;;16.50;86.40;;;;;;5094035;28;20630;-73
2023/06/29 05:05:45;;;;;;;3.70;3.40;;;16.70;85.90;;;;;;5090878;28;21101;-73
2023/06/29 05:08:13;;;;;;;4.13;3.73;;;16.90;84.80;;;;;;5088209;28;20955;-73
2023/06/29 05:10:40;;;;;;;4.23;3.80;;;16.90;84.00;;;;;;5089344;28;20651;-73
2023/06/29 05:13:07;;;;;;;5.97;5.37;;;17.00;83.50;;;;;;5088757;28;20621;-73
2023/06/29 05:15:33;;;;;;;5.27;4.77;;;17.00;83.80;;;;;;5087659;28;20676;-74
2023/06/29 05:18:00;;;;;;;3.50;3.30;;;17.00;83.40;;;;;;5092620;28;20625;-74
2023/06/29 05:20:27;;;;;;;4.20;3.77;;;17.10;83.00;;;;;;5092583;28;20992;-74
2023/06/29 05:22:54;;;;;;;3.80;3.50;;;17.20;83.40;;;;;;5088693;28;20655;-74
2023/06/29 05:25:22;;;;;;;3.77;3.40;;;17.10;83.10;;;;;;5083665;28;20755;-73
2023/06/29 05:27:49;;;;;;;3.67;3.37;;;17.20;82.10;;;;;;5091161;28;20628;-73
2023/06/29 05:30:16;;;;;;;3.77;3.47;;;17.30;82.40;;;;;;5089960;28;20654;-73
2023/06/29 05:32:43;;;;;;;4.90;4.40;;;17.50;81.50;;;;;;5091882;28;20616;-73
2023/06/29 05:35:10;;;;;;;5.10;3.93;;;17.60;81.30;;;;;;5090556;28;20757;-73
2023/06/29 05:37:37;;;;;;;4.57;4.17;;;17.60;81.10;;;;;;5089742;28;20629;-72
2023/06/29 05:40:04;;;;;;;3.43;3.13;;;17.70;79.60;;;;;;5090221;28;20623;-72
2023/06/29 05:42:33;;;;;;;6.10;4.60;;;17.80;79.40;;;;;;5092421;28;20604;-73
2023/06/29 05:44:59;;;;;;;3.67;3.37;;;17.90;78.80;;;;;;5081426;28;20621;-73
2023/06/29 05:47:26;;;;;;;4.20;3.50;;;18.00;79.60;;;;;;5088302;28;21085;-73
2023/06/29 05:49:53;;;;;;;3.70;3.10;;;18.00;79.00;;;;;;5086223;28;20992;-73
2023/06/29 05:52:20;;;;;;;4.00;3.53;;;18.10;79.00;;;;;;5089380;28;20659;-73
2023/06/29 05:54:47;;;;;;;4.67;4.17;;;18.30;78.50;;;;;;5090674;28;20637;-73
2023/06/29 05:57:13;;;;;;;3.80;3.53;;;18.30;77.80;;;;;;5088902;28;21067;-73
2023/06/29 05:59:41;;;;;;;3.13;2.93;;;18.30;77.90;;;;;;5088702;28;20621;-73
2023/06/29 06:02:09;;;;;;;3.50;3.20;;;18.40;77.50;;;;;;5088888;28;20759;-72
2023/06/29 06:04:36;;;;;;;3.63;3.43;;;18.50;76.70;;;;;;5088752;28;20628;-73
2023/06/29 06:07:03;;;;;;;4.10;3.70;;;18.70;77.20;;;;;;5090907;28;20694;-73
2023/06/29 06:09:30;;;;;;;4.37;3.97;;;18.70;76.10;;;;;;5086811;28;20663;-73
2023/06/29 06:11:57;;;;;;;3.60;3.30;;;18.80;75.90;;;;;;5093988;28;20939;-74
2023/06/29 06:14:23;;;;;;;4.67;3.50;;;18.90;76.30;;;;;;5084217;28;20653;-73
2023/06/29 06:16:52;;;;;;;3.33;2.97;;;18.90;76.90;;;;;;5086793;28;20647;-73
2023/06/29 06:19:18;;;;;;;3.33;3.03;;;19.10;75.30;;;;;;5093209;28;20631;-73
2023/06/29 06:21:45;;;;;;;3.70;3.30;;;19.20;75.80;;;;;;5094288;28;20725;-73
2023/06/29 06:24:13;;;;;;;3.67;3.37;;;19.30;75.00;;;;;;5094836;28;20755;-74
2023/06/29 06:26:40;;;;;;;4.37;3.23;;;19.40;74.20;;;;;;5095217;28;20655;-75
2023/06/29 06:29:07;;;;;;;4.50;3.50;;;19.50;73.50;;;;;;5091891;28;20661;-73
2023/06/29 06:31:33;;;;;;;4.30;3.33;;;19.60;73.00;;;;;;5087257;28;21055;-73
2023/06/29 06:34:02;;;;;;;2.83;2.60;;;19.70;72.50;;;;;;5088065;28;20715;-73
2023/06/29 06:36:30;;;;;;;3.20;2.97;;;19.80;71.90;;;;;;5081388;28;20660;-73
2023/06/29 06:38:57;;;;;;;2.90;2.70;;;19.90;72.20;;;;;;5092053;28;20623;-73
2023/06/29 06:41:23;;;;;;;3.70;2.90;;;20.00;72.60;;;;;;5088658;28;21250;-73
2023/06/29 06:43:51;;;;;;;3.10;2.80;;;20.20;71.40;;;;;;5086736;28;20628;-74
2023/06/29 06:46:18;;;;;;;3.40;3.10;;;20.30;70.10;;;;;;5087356;28;20657;-73
2023/06/29 06:48:45;;;;;;;3.63;3.33;;;20.40;69.10;;;;;;5085956;28;20701;-73
2023/06/29 06:51:13;;;;;;;3.17;2.97;;;20.50;69.50;;;;;;5086725;28;20651;-73
2023/06/29 06:53:40;;;;;;;2.63;2.53;;;20.60;67.20;;;;;;5089505;28;20640;-74
2023/06/29 06:56:07;;;;;;;3.60;3.30;;;20.70;67.20;;;;;;5086786;28;20749;-73
2023/06/29 06:58:35;;;;;;;2.97;2.77;;;20.80;65.90;;;;;;5086663;28;20736;-73
2023/06/29 07:01:02;;;;;;;2.73;2.53;;;20.80;66.00;;;;;;5089016;28;21288;-73
2023/06/29 07:03:29;;;;;;;3.07;2.87;;;21.00;65.70;;;;;;5087501;28;20636;-73
2023/06/29 07:05:55;;;;;;;3.13;2.80;;;21.10;66.50;;;;;;5087144;28;21011;-74
2023/06/29 07:08:23;;;;;;;4.47;3.37;;;21.10;64.00;;;;;;5086537;28;20639;-73
2023/06/29 07:10:51;;;;;;;3.03;2.83;;;21.10;64.90;;;;;;5086290;28;20668;-72
2023/06/29 07:13:18;;;;;;;3.07;2.87;;;21.30;65.60;;;;;;5086348;28;20629;-74
2023/06/29 07:15:46;;;;;;;3.30;3.10;;;21.30;64.40;;;;;;5086462;28;20656;-74
2023/06/29 07:18:12;;;;;;;3.47;3.10;;;21.40;64.70;;;;;;5086782;28;20620;-74
2023/06/29 07:20:40;;;;;;;3.13;2.90;;;21.50;65.10;;;;;;5087950;28;20760;-74
2023/06/29 07:23:06;;;;;;;2.20;2.10;;;21.50;62.80;;;;;;5090850;28;20731;-74
2023/06/29 07:25:35;;;;;;;3.43;3.10;;;21.60;64.50;;;;;;5087521;28;20636;-75
2023/06/29 07:28:01;;;;;;;5.80;3.30;;;21.90;64.20;;;;;;5090730;28;21066;-75
2023/06/29 07:30:28;;;;;;;4.47;2.80;;;21.90;63.40;;;;;;5089381;28;20660;-74
2023/06/29 07:32:55;;;;;;;2.90;2.70;;;22.00;63.90;;;;;;5093539;28;21304;-74
2023/06/29 07:35:22;;;;;;;2.80;2.60;;;22.20;62.60;;;;;;5092027;28;21108;-74
2023/06/29 07:37:49;;;;;;;5.33;2.87;;;22.40;62.30;;;;;;5090119;28;20720;-74
2023/06/29 07:40:16;;;;;;;2.53;2.33;;;22.60;62.00;;;;;;5085904;28;20616;-75
2023/06/29 07:42:44;;;;;;;3.23;2.87;;;22.80;59.90;;;;;;5096254;28;20640;-74
2023/06/29 07:45:12;;;;;;;2.97;2.57;;;22.90;59.80;;;;;;5090379;28;20621;-75
2023/06/29 07:47:38;;;;;;;2.53;2.33;;;22.80;59.40;;;;;;5090065;28;21156;-74
2023/06/29 07:50:06;;;;;;;2.60;2.20;;;22.80;60.30;;;;;;5089116;28;21003;-75
2023/06/29 07:52:33;;;;;;;2.40;2.30;;;22.60;59.90;;;;;;5090796;28;21043;-74
2023/06/29 07:55:00;;;;;;;2.70;2.50;;;22.70;60.20;;;;;;5097749;28;20634;-74
2023/06/29 07:57:27;;;;;;;2.77;2.53;;;22.80;59.50;;;;;;5093845;28;20651;-74
2023/06/29 07:59:55;;;;;;;2.27;2.07;;;22.90;59.30;;;;;;5091339;28;20734;-75
2023/06/29 08:02:22;;;;;;;2.47;2.37;;;23.00;59.40;;;;;;5088731;28;20646;-75
2023/06/29 08:04:50;;;;;;;2.00;1.90;;;23.10;59.10;;;;;;5089949;28;20635;-75
2023/06/29 08:07:17;;;;;;;2.80;2.60;;;23.20;59.10;;;;;;5095364;28;20649;-75
2023/06/29 08:09:44;;;;;;;2.40;2.30;;;23.30;58.60;;;;;;5089665;28;20662;-74
2023/06/29 08:12:11;;;;;;;3.03;2.83;;;23.40;58.80;;;;;;5091513;28;20758;-75
2023/06/29 08:14:39;;;;;;;2.70;2.50;;;23.40;58.40;;;;;;5089578;28;20981;-75
2023/06/29 08:17:07;;;;;;;2.73;2.53;;;23.50;58.60;;;;;;5098781;28;20650;-75
2023/06/29 08:19:34;;;;;;;2.47;2.30;;;23.40;58.40;;;;;;5092758;28;20630;-74
2023/06/29 08:22:00;;;;;;;2.40;2.30;;;23.60;58.40;;;;;;5089882;28;20682;-74
2023/06/29 08:24:27;;;;;;;2.53;2.33;;;23.80;57.20;;;;;;5092036;28;21082;-75
2023/06/29 08:26:54;;;;;;;2.00;1.90;;;23.70;57.60;;;;;;5088750;28;21249;-74
2023/06/29 08:29:21;;;;;;;2.77;2.57;;;23.80;57.30;;;;;;5089026;28;20617;-75
2023/06/29 08:31:48;;;;;;;2.50;2.30;;;24.00;56.80;;;;;;5088956;28;20677;-75
2023/06/29 08:34:16;;;;;;;2.40;2.20;;;24.00;57.10;;;;;;5090998;28;20629;-74
2023/06/29 08:36:43;;;;;;;2.63;2.47;;;24.20;57.10;;;;;;5089215;28;21177;-76
2023/06/29 08:39:10;;;;;;;2.07;1.97;;;24.40;55.80;;;;;;5090604;28;20639;-76
2023/06/29 08:41:36;;;;;;;2.80;2.60;;;24.50;56.00;;;;;;5089178;28;20639;-76
2023/06/29 08:44:04;;;;;;;2.13;2.03;;;24.50;55.50;;;;;;5094066;28;20718;-76
2023/06/29 08:46:31;;;;;;;1.90;1.80;;;24.50;54.90;;;;;;5090825;28;21021;-75
2023/06/29 08:48:59;;;;;;;1.93;1.80;;;24.50;54.60;;;;;;5088054;28;20620;-75
2023/06/29 08:51:29;;;;;;;2.73;2.53;;;24.40;54.70;;;;;;5091104;28;20660;-74
2023/06/29 08:53:56;;;;;;;2.90;2.27;;;24.20;54.60;;;;;;5088744;28;20659;-75
2023/06/29 08:56:24;;;;;;;1.80;1.70;;;24.20;54.30;;;;;;5091156;28;20649;-75
2023/06/29 08:58:51;;;;;;;2.27;2.07;;;24.20;55.20;;;;;;5093091;28;20622;-74
2023/06/29 09:01:19;;;;;;;2.63;2.43;;;24.20;54.30;;;;;;5089556;28;20646;-75
2023/06/29 09:03:46;;;;;;;2.70;2.50;;;24.20;54.30;;;;;;5091953;28;20622;-75
2023/06/29 09:06:16;;;;;;;2.20;2.10;;;24.20;54.90;;;;;;5086062;28;21437;-75
2023/06/29 09:08:44;;;;;;;2.40;2.27;;;24.30;54.30;;;;;;5085233;28;20679;-74
2023/06/29 09:11:11;;;;;;;2.40;2.00;;;24.40;54.10;;;;;;5087440;28;20721;-74
2023/06/29 09:13:38;;;;;;;2.40;2.07;;;24.60;55.20;;;;;;5089206;28;20627;-75
2023/06/29 09:16:06;;;;;;;2.70;2.00;;;24.60;54.50;;;;;;5087955;28;20869;-75
2023/06/29 09:18:34;;;;;;;2.30;2.20;;;24.80;54.80;;;;;;5088006;28;21218;-74
2023/06/29 09:21:01;;;;;;;2.83;2.63;;;25.10;53.90;;;;;;5089278;28;21287;-75
2023/06/29 09:23:28;;;;;;;2.23;2.00;;;25.30;54.80;;;;;;5094424;28;20730;-75
2023/06/29 09:25:57;;;;;;;1.80;1.70;;;25.30;52.60;;;;;;5086531;28;20678;-74
2023/06/29 09:28:25;;;;;;;1.93;1.83;;;25.50;52.00;;;;;;5088051;28;21194;-75
2023/06/29 09:30:52;;;;;;;2.37;2.17;;;25.50;51.80;;;;;;5087139;28;20719;-75
2023/06/29 09:33:21;;;;;;;4.90;2.37;;;25.40;51.80;;;;;;5092621;28;20638;-75
2023/06/29 09:35:50;;;;;;;2.13;1.97;;;25.20;51.80;;;;;;5090338;28;20746;-75
2023/06/29 09:38:18;;;;;;;3.40;1.93;;;25.00;53.20;;;;;;5087333;28;20740;-74
2023/06/29 09:40:49;;;;;;;1.60;1.50;;;25.30;54.10;;;;;;5086002;28;21038;-74
2023/06/29 09:43:18;;;;;;;2.30;2.20;;;25.70;52.60;;;;;;5087981;28;20628;-74
2023/06/29 09:45:45;;;;;;;2.50;2.30;;;25.70;52.90;;;;;;5088400;28;21025;-75
2023/06/29 09:48:13;;;;;;;2.50;2.30;;;25.70;51.60;;;;;;5091344;28;20728;-75
2023/06/29 09:50:49;;;;;;;1.97;1.87;;;25.60;52.70;;;;;;5089041;28;21210;-74
2023/06/29 09:53:16;;;;;;;2.07;1.97;;;25.40;51.90;;;;;;5086888;28;20607;-75
2023/06/29 09:55:44;;;;;;;2.47;1.80;;;25.20;51.60;;;;;;5087427;28;21519;-75
2023/06/29 09:58:13;;;;;;;2.30;2.20;;;25.30;52.50;;;;;;5088156;28;20674;-75
2023/06/29 10:00:41;;;;;;;2.40;2.20;;;25.50;53.30;;;;;;5094265;28;20689;-75
2023/06/29 10:03:08;;;;;;;2.13;2.03;;;25.60;52.40;;;;;;5096133;28;20643;-75
2023/06/29 10:05:38;;;;;;;2.57;2.17;;;26.00;53.10;;;;;;5088066;28;20666;-75
2023/06/29 10:08:09;;;;;;;2.13;2.00;;;26.40;51.70;;;;;;5087569;28;20631;-74
2023/06/29 10:10:37;;;;;;;2.00;1.90;;;26.60;51.00;;;;;;5089448;28;21037;-73
2023/06/29 10:13:07;;;;;;;2.50;2.30;;;26.70;50.30;;;;;;5096525;28;20646;-73
2023/06/29 10:15:35;;;;;;;1.93;1.83;;;26.60;50.50;;;;;;5088034;28;20756;-73
2023/06/29 10:18:11;;;;;;;1.80;1.70;;;26.40;50.80;;;;;;5088644;28;20628;-73
2023/06/29 10:20:41;;;;;;;1.80;1.70;;;26.50;51.30;;;;;;5085724;28;20657;-73
2023/06/29 10:23:09;;;;;;;2.00;1.80;;;26.90;50.40;;;;;;5085926;28;21192;-72
2023/06/29 10:25:40;;;;;;;2.00;1.90;;;27.40;51.90;;;;;;5084940;28;20977;-73
2023/06/29 10:28:08;;;;;;;2.30;2.20;;;27.60;50.40;;;;;;5086876;28;20621;-73
2023/06/29 10:30:45;;;;;;;2.10;2.00;;;27.80;51.20;;;;;;5085408;28;20669;-74
2023/06/29 10:33:13;;;;;;;2.87;2.50;;;28.00;50.20;;;;;;5075726;28;20623;-74
2023/06/29 10:35:40;;;;;;;2.00;1.90;;;28.10;49.30;;;;;;5082036;28;21067;-73
2023/06/29 10:38:12;;;;;;;2.63;2.33;;;28.30;47.90;;;;;;5086772;28;20636;-73
2023/06/29 10:40:47;;;;;;;2.50;2.30;;;28.40;48.90;;;;;;5091221;28;20641;-73
2023/06/29 10:43:14;;;;;;;2.30;2.10;;;28.40;48.60;;;;;;5092483;28;21021;-73
2023/06/29 10:45:41;;;;;;;2.90;2.20;;;28.40;48.60;;;;;;5084718;28;20652;-73
2023/06/29 10:48:10;;;;;;;2.77;2.57;;;28.10;48.20;;;;;;5087221;28;20623;-73
2023/06/29 10:50:43;;;;;;;2.30;2.10;;;28.20;48.50;;;;;;5094219;28;21322;-73
2023/06/29 10:53:12;;;;;;;2.37;2.17;;;28.30;49.00;;;;;;5087178;28;20627;-73
2023/06/29 10:55:52;;;;;;;2.53;2.10;;;28.40;48.80;;;;;;5086762;28;20668;-74
2023/06/29 10:58:21;;;;;;;1.80;1.70;;;28.60;47.60;;;;;;5085069;28;21260;-74
2023/06/29 11:00:48;;;;;;;2.40;2.20;;;28.80;49.20;;;;;;5087920;28;21216;-73
2023/06/29 11:03:16;;;;;;;2.50;2.30;;;29.00;48.30;;;;;;5091839;28;21148;-73
2023/06/29 11:05:47;;;;;;;2.70;2.40;;;29.30;48.10;;;;;;5096146;28;20649;-73
2023/06/29 11:08:14;;;;;;;1.80;1.70;;;29.30;46.20;;;;;;5091183;28;20625;-73
2023/06/29 11:10:41;;;;;;;2.23;2.03;;;29.50;46.80;;;;;;5091024;28;20666;-73
2023/06/29 11:13:09;;;;;;;1.80;1.70;;;29.50;46.50;;;;;;5091824;28;20621;-73
2023/06/29 11:15:37;;;;;;;3.10;2.87;;;29.80;47.00;;;;;;5090327;28;20693;-73
2023/06/29 11:18:05;;;;;;;3.43;3.00;;;29.50;46.60;;;;;;5090734;28;20617;-73
2023/06/29 11:20:33;;;;;;;2.97;2.50;;;29.70;46.60;;;;;;5089798;28;20636;-73
2023/06/29 11:23:02;;;;;;;2.93;2.50;;;30.00;46.40;;;;;;5089205;28;20652;-73
2023/06/29 11:25:29;;;;;;;2.87;2.63;;;30.40;47.30;;;;;;5087381;28;20654;-71
2023/06/29 11:27:56;;;;;;;2.67;2.47;;;30.60;46.00;;;;;;5095656;28;20620;-73
2023/06/29 11:30:23;;;;;;;3.20;2.90;;;30.60;44.10;;;;;;5098035;28;21014;-73
2023/06/29 11:32:52;;;;;;;2.43;2.23;;;30.60;45.60;;;;;;5098405;28;20634;-73
2023/06/29 11:35:21;;;;;;;2.87;2.67;;;30.80;44.90;;;;;;5091767;28;21195;-73
2023/06/29 11:37:49;;;;;;;2.90;2.60;;;30.90;44.70;;;;;;5089584;28;20660;-73
2023/06/29 11:40:19;;;;;;;2.97;2.67;;;31.30;45.70;;;;;;5093746;28;21267;-71
2023/06/29 11:42:46;;;;;;;2.57;2.37;;;31.60;43.20;;;;;;5091174;28;20628;-71
2023/06/29 11:45:14;;;;;;;2.47;2.37;;;32.00;43.70;;;;;;5090239;28;20634;-71
2023/06/29 11:47:41;;;;;;;2.70;2.50;;;31.80;43.50;;;;;;5089722;28;21034;-72
2023/06/29 11:50:10;;;;;;;2.60;2.40;;;32.00;42.50;;;;;;5091410;28;20648;-72
2023/06/29 11:52:39;;;;;;;3.57;3.03;;;31.60;42.30;;;;;;5097067;28;20989;-71
2023/06/29 11:55:07;;;;;;;4.53;2.30;;;31.30;43.80;;;;;;5096402;28;21238;-71
2023/06/29 11:57:37;;;;;;;2.60;2.40;;;31.20;43.30;;;;;;5094760;28;20632;-71
2023/06/29 12:00:06;;;;;;;2.57;2.33;;;31.30;43.50;;;;;;5094489;28;21008;-73
2023/06/29 12:02:34;;;;;;;2.63;2.43;;;31.40;43.00;;;;;;5092545;28;21024;-73
2023/06/29 12:05:04;;;;;;;2.77;2.57;;;31.90;42.00;;;;;;5097340;28;20642;-74
2023/06/29 12:07:38;;;;;;;2.77;2.50;;;31.30;42.40;;;;;;5092933;28;20632;-73
2023/06/29 12:10:06;;;;;;;2.83;2.63;;;30.60;43.80;;;;;;5094057;28;20618;-74
2023/06/29 12:12:39;;;;;;;2.43;2.23;;;30.80;43.40;;;;;;5093424;28;20675;-72
2023/06/29 12:15:16;;;;;;;2.80;2.60;;;31.40;43.60;;;;;;5091142;28;20620;-71
2023/06/29 12:17:43;;;;;;;3.00;2.70;;;31.40;44.10;;;;;;5091950;28;20628;-72
2023/06/29 12:20:15;;;;;;;3.07;2.13;;;32.00;43.10;;;;;;5091961;28;21065;-72
2023/06/29 12:22:42;;;;;;;3.50;2.93;;;31.60;43.80;;;;;;5094335;28;20628;-72
2023/06/29 12:25:13;;;;;;;2.70;2.50;;;31.40;43.40;;;;;;5091774;28;20744;-71
2023/06/29 12:27:44;;;;;;;3.60;2.60;;;29.70;44.10;;;;;;5098172;28;20716;-72
2023/06/29 12:30:14;;;;;;;3.80;3.50;;;29.80;45.80;;;;;;5095854;28;20619;-72
2023/06/29 12:32:41;;;;;;;4.50;3.23;;;29.70;45.40;;;;;;5096923;28;20653;-72
2023/06/29 12:35:08;;;;;;;2.93;2.70;;;29.60;46.20;;;;;;5085828;28;20731;-71
2023/06/29 12:37:35;;;;;;;3.17;2.47;;;29.40;46.20;;;;;;5088574;28;20664;-72
2023/06/29 12:40:04;;;;;;;2.90;2.30;;;29.30;46.90;;;;;;5098953;28;20627;-71
2023/06/29 12:42:32;;;;;;;3.70;2.97;;;29.20;47.80;;;;;;5080600;28;20652;-71
2023/06/29 12:45:00;;;;;;;3.70;3.13;;;28.80;45.80;;;;;;5089426;28;20617;-71
2023/06/29 12:47:27;;;;;;;2.70;2.50;;;28.20;47.30;;;;;;5091469;28;20692;-71
2023/06/29 12:49:53;;;;;;;3.90;3.47;;;28.10;49.00;;;;;;5088032;28;21177;-74
2023/06/29 12:52:20;;;;;;;3.23;2.90;;;28.00;47.30;;;;;;5095820;28;21118;-73